createdAt,value
2018-05-31T00:02:08.253Z,13.23
2018-05-31T00:06:12.055Z,15.50
2018-05-31T00:10:14.885Z,17.37
2018-05-31T00:14:18.509Z,15.70
2018-05-31T00:18:22.106Z,17.00
2018-05-31T00:22:25.786Z,15.90
2018-05-31T00:26:28.546Z,17.93
2018-05-31T00:30:31.266Z,16.50
2018-05-31T00:34:34.072Z,16.37
2018-05-31T00:38:36.906Z,16.43
2018-05-31T00:42:39.648Z,16.20
2018-05-31T00:46:42.441Z,16.47
2018-05-31T00:50:45.313Z,16.40
2018-05-31T00:54:48.139Z,15.80
2018-05-31T00:58:51.639Z,14.13
2018-05-31T01:02:55.241Z,15.43
2018-05-31T01:06:57.985Z,15.17
2018-05-31T01:11:00.733Z,13.70
2018-05-31T01:15:03.697Z,14.47
2018-05-31T01:19:06.724Z,16.43
2018-05-31T01:23:09.667Z,14.97
2018-05-31T01:27:12.406Z,13.73
2018-05-31T01:31:15.385Z,14.73
2018-05-31T01:35:18.113Z,14.70
2018-05-31T01:39:20.945Z,16.00
2018-05-31T01:43:24.469Z,16.97
2018-05-31T01:47:28.117Z,16.77
2018-05-31T01:51:31.145Z,15.33
2018-05-31T01:55:34.050Z,16.83
2018-05-31T01:59:36.900Z,15.30
2018-05-31T02:03:39.759Z,19.27
2018-05-31T02:07:42.495Z,17.80
2018-05-31T02:11:45.459Z,18.40
2018-05-31T02:15:49.475Z,17.47
2018-05-31T02:19:52.212Z,15.90
2018-05-31T02:23:55.718Z,15.30
2018-05-31T02:27:59.338Z,13.10
2018-05-31T02:32:02.932Z,13.07
2018-05-31T02:36:05.879Z,14.90
2018-05-31T02:40:08.922Z,13.57
2018-05-31T02:44:11.747Z,15.20
2018-05-31T02:48:14.527Z,14.23
2018-05-31T02:52:18.138Z,16.70
2018-05-31T02:56:20.857Z,16.97
2018-05-31T03:00:23.733Z,14.63
2018-05-31T03:04:27.295Z,14.20
2018-05-31T03:08:30.045Z,14.60
2018-05-31T03:12:32.827Z,16.10
2018-05-31T03:16:35.847Z,14.97
2018-05-31T03:20:38.593Z,15.10
2018-05-31T03:24:41.330Z,13.47
2018-05-31T03:28:45.223Z,14.80
2018-05-31T03:32:47.959Z,14.17
2018-05-31T03:36:50.865Z,15.33
2018-05-31T03:40:53.602Z,13.67
2018-05-31T03:44:56.570Z,12.60
2018-05-31T03:48:59.341Z,14.17
2018-05-31T03:53:02.180Z,13.03
2018-05-31T03:57:05.088Z,13.30
2018-05-31T04:01:08.574Z,14.20
2018-05-31T04:05:11.526Z,14.17
2018-05-31T04:09:14.261Z,15.70
2018-05-31T04:13:17.110Z,14.67
2018-05-31T04:17:20.935Z,13.47
2018-05-31T04:21:24.437Z,14.73
2018-05-31T04:25:27.383Z,15.47
2018-05-31T04:29:30.158Z,14.27
2018-05-31T04:33:33.100Z,15.17
2018-05-31T04:37:35.911Z,15.10
2018-05-31T04:41:39.770Z,13.70
2018-05-31T04:45:43.291Z,15.87
2018-05-31T04:49:46.848Z,15.77
2018-05-31T04:53:49.596Z,14.17
2018-05-31T04:57:53.367Z,13.50
2018-05-31T05:01:56.106Z,14.80
2018-05-31T05:05:59.651Z,15.63
2018-05-31T05:10:02.472Z,15.10
2018-05-31T05:14:06.046Z,15.37
2018-05-31T05:18:09.541Z,16.53
2018-05-31T05:22:12.365Z,14.53
2018-05-31T05:26:15.127Z,15.73
2018-05-31T05:30:17.934Z,14.83
2018-05-31T05:34:27.261Z,15.47
2018-05-31T05:38:31.027Z,14.67
2018-05-31T05:42:33.943Z,14.07
2018-05-31T05:46:36.692Z,15.57
2018-05-31T05:50:39.504Z,14.83
2018-05-31T05:54:42.350Z,14.40
2018-05-31T05:58:45.219Z,15.23
2018-05-31T06:02:48.014Z,14.73
2018-05-31T06:06:51.600Z,14.67
2018-05-31T06:10:54.341Z,15.40
2018-05-31T06:14:57.099Z,14.30
2018-05-31T06:19:01.054Z,14.67
2018-05-31T06:23:03.885Z,15.40
2018-05-31T06:27:07.651Z,16.93
2018-05-31T06:31:10.366Z,15.77
2018-05-31T06:35:13.131Z,14.00
2018-05-31T06:39:16.014Z,14.47
2018-05-31T06:43:18.758Z,13.50
2018-05-31T06:47:23.179Z,11.70
2018-05-31T06:51:26.058Z,13.47
2018-05-31T06:55:28.821Z,14.03
2018-05-31T06:59:31.848Z,13.80
2018-05-31T07:03:34.583Z,12.57
2018-05-31T07:07:38.065Z,10.07
2018-05-31T07:11:40.794Z,11.13
2018-05-31T07:15:43.553Z,11.73
2018-05-31T07:19:46.266Z,8.20
2018-05-31T07:23:49.073Z,8.40
2018-05-31T07:27:51.793Z,8.67
2018-05-31T07:31:55.365Z,8.30
2018-05-31T07:35:58.130Z,8.27
2018-05-31T07:40:01.027Z,8.07
2018-05-31T07:44:03.837Z,8.10
2018-05-31T07:48:06.627Z,7.80
2018-05-31T07:52:09.396Z,7.60
2018-05-31T07:56:12.913Z,7.60
2018-05-31T08:00:16.388Z,7.43
2018-05-31T08:04:19.440Z,7.60
2018-05-31T08:08:22.908Z,8.60
2018-05-31T08:12:26.629Z,8.30
2018-05-31T08:16:29.457Z,9.57
2018-05-31T08:20:32.933Z,8.50
2018-05-31T08:24:35.736Z,9.30
2018-05-31T08:28:39.593Z,8.63
2018-05-31T08:32:43.093Z,8.80
2018-05-31T08:36:45.914Z,8.43
2018-05-31T08:40:49.409Z,9.07
2018-05-31T08:44:52.146Z,9.73
2018-05-31T08:48:54.968Z,10.13
2018-05-31T08:52:57.714Z,8.60
2018-05-31T08:57:00.968Z,9.27
2018-05-31T09:01:03.768Z,8.63
2018-05-31T09:05:06.579Z,7.87
2018-05-31T09:09:10.309Z,8.40
2018-05-31T09:13:13.069Z,7.73
2018-05-31T09:17:15.907Z,8.10
2018-05-31T09:21:18.629Z,8.70
2018-05-31T09:25:22.266Z,7.60
2018-05-31T09:29:25.771Z,7.67
2018-05-31T09:33:32.950Z,7.90
2018-05-31T09:37:35.692Z,7.97
2018-05-31T09:41:38.778Z,8.07
2018-05-31T09:45:42.269Z,8.20
2018-05-31T09:49:46.026Z,9.07
2018-05-31T09:53:48.753Z,8.23
2018-05-31T09:57:52.281Z,8.40
2018-05-31T10:01:55.070Z,7.83
2018-05-31T10:05:57.795Z,8.07
2018-05-31T10:10:00.607Z,8.03
2018-05-31T10:14:03.501Z,7.70
2018-05-31T10:18:06.375Z,7.83
2018-05-31T10:22:09.117Z,8.93
2018-05-31T10:26:11.865Z,7.53
2018-05-31T10:30:14.661Z,8.10
2018-05-31T10:34:17.388Z,10.00
2018-05-31T10:38:20.129Z,7.90
2018-05-31T10:42:23.001Z,7.97
2018-05-31T10:46:25.875Z,8.20
2018-05-31T10:50:28.773Z,7.90
2018-05-31T10:54:31.545Z,8.40
2018-05-31T10:58:36.142Z,8.80
2018-05-31T11:02:39.688Z,8.87
2018-05-31T11:06:42.442Z,7.83
2018-05-31T11:10:45.987Z,7.53
2018-05-31T11:14:48.727Z,7.30
2018-05-31T11:18:51.564Z,7.77
2018-05-31T11:22:55.041Z,8.23
2018-05-31T11:26:57.792Z,7.10
2018-05-31T11:31:00.541Z,10.13
2018-05-31T11:35:03.310Z,7.83
2018-05-31T11:39:06.076Z,8.60
2018-05-31T11:43:08.813Z,9.73
2018-05-31T11:47:12.581Z,7.47
2018-05-31T11:51:16.045Z,7.80
2018-05-31T11:55:19.670Z,8.07
2018-05-31T11:59:22.403Z,7.00
2018-05-31T12:03:25.870Z,7.70
2018-05-31T12:07:28.614Z,6.90
2018-05-31T12:11:32.425Z,6.90
2018-05-31T12:15:35.202Z,7.70
2018-05-31T12:19:37.986Z,7.20
2018-05-31T12:23:40.704Z,7.50
2018-05-31T12:27:43.535Z,8.30
2018-05-31T12:31:46.308Z,7.50
2018-05-31T12:35:49.145Z,7.37
2018-05-31T12:39:51.857Z,8.10
2018-05-31T12:43:54.697Z,7.23
2018-05-31T12:47:57.454Z,8.47
2018-05-31T12:52:00.393Z,8.30
2018-05-31T12:56:03.167Z,7.07
2018-05-31T13:00:06.777Z,8.50
2018-05-31T13:04:09.465Z,8.10
2018-05-31T13:08:12.206Z,8.23
2018-05-31T13:12:14.966Z,7.83
2018-05-31T13:16:17.784Z,8.80
2018-05-31T13:20:21.303Z,8.33
2018-05-31T13:24:24.071Z,9.23
2018-05-31T13:28:26.802Z,8.97
2018-05-31T13:32:29.586Z,8.63
2018-05-31T13:36:32.689Z,9.23
2018-05-31T13:40:35.406Z,9.17
2018-05-31T13:44:38.200Z,9.67
2018-05-31T13:48:40.959Z,10.07
2018-05-31T13:52:43.856Z,9.73
2018-05-31T13:56:46.844Z,9.25
2018-05-31T14:00:50.495Z,11.07
2018-05-31T14:04:53.367Z,10.50
2018-05-31T14:08:56.132Z,10.70
2018-05-31T14:12:58.881Z,8.87
2018-05-31T14:17:01.673Z,9.27
2018-05-31T14:21:04.441Z,10.20
2018-05-31T14:25:07.182Z,11.57
2018-05-31T14:29:10.121Z,10.90
2018-05-31T14:33:12.854Z,10.33
2018-05-31T14:37:15.604Z,10.67
2018-05-31T14:41:18.445Z,10.40
2018-05-31T14:45:22.303Z,11.53
2018-05-31T14:49:25.184Z,11.40
2018-05-31T14:53:27.933Z,10.90
2018-05-31T14:57:30.774Z,12.23
2018-05-31T15:01:33.518Z,11.70
2018-05-31T15:05:36.369Z,12.43
2018-05-31T15:09:39.925Z,13.00
2018-05-31T15:13:44.378Z,11.83
2018-05-31T15:17:47.322Z,11.97
2018-05-31T15:21:50.826Z,13.30
2018-05-31T15:25:54.491Z,12.17
2018-05-31T15:29:57.366Z,12.07
2018-05-31T15:34:00.089Z,13.80
2018-05-31T15:38:02.858Z,14.30
2018-05-31T15:42:05.690Z,13.13
2018-05-31T15:46:08.386Z,14.23
2018-05-31T15:50:11.333Z,14.30
2018-05-31T15:54:14.856Z,13.13
2018-05-31T15:58:18.432Z,14.48
2018-05-31T16:02:21.241Z,14.60
2018-05-31T16:06:24.073Z,13.90
2018-05-31T16:10:27.641Z,13.83
2018-05-31T16:14:30.392Z,14.27
2018-05-31T16:18:33.233Z,17.43
2018-05-31T16:22:35.973Z,15.00
2018-05-31T16:26:39.579Z,15.27
2018-05-31T16:30:42.467Z,17.33
2018-05-31T16:34:46.034Z,17.40
2018-05-31T16:38:48.817Z,17.17
2018-05-31T16:42:51.562Z,16.40
2018-05-31T16:46:54.290Z,20.73
2018-05-31T16:50:57.773Z,21.23
2018-05-31T16:55:00.597Z,18.40
2018-05-31T16:59:03.429Z,18.13
2018-05-31T17:03:06.352Z,18.47
2018-05-31T17:07:09.171Z,18.60
2018-05-31T17:11:11.961Z,17.17
2018-05-31T17:15:15.028Z,17.77
2018-05-31T17:19:17.824Z,19.63
2018-05-31T17:23:20.581Z,17.90
2018-05-31T17:27:24.245Z,17.47
2018-05-31T17:31:27.148Z,17.40
2018-05-31T17:35:29.929Z,18.73
2018-05-31T17:39:33.398Z,18.47
2018-05-31T17:43:36.252Z,19.10
2018-05-31T17:47:39.191Z,18.80
2018-05-31T17:51:41.941Z,18.07
2018-05-31T17:55:45.451Z,18.40
2018-05-31T17:59:48.989Z,19.20
2018-05-31T18:20:18.626Z,18.80
2018-05-31T18:24:22.643Z,19.40
2018-05-31T18:28:26.832Z,19.00
2018-05-31T18:32:29.565Z,17.90
2018-05-31T18:36:32.441Z,20.20
2018-05-31T18:40:36.017Z,20.17
2018-05-31T18:44:39.095Z,20.30
2018-05-31T18:48:41.802Z,23.17
2018-05-31T18:52:45.597Z,18.20
2018-05-31T18:56:48.425Z,17.87
2018-05-31T19:00:51.825Z,16.60
2018-05-31T19:04:54.575Z,15.90
2018-05-31T19:08:59.242Z,16.70
2018-05-31T19:13:08.501Z,16.70
2018-05-31T19:17:11.580Z,17.90
2018-05-31T19:21:15.100Z,17.50
2018-05-31T19:25:21.201Z,17.00
2018-05-31T19:29:24.092Z,18.10
2018-05-31T19:33:26.985Z,17.17
2018-05-31T19:37:29.837Z,18.07
2018-05-31T19:41:33.469Z,17.73
2018-05-31T19:45:36.310Z,17.47
2018-05-31T19:49:40.692Z,18.60
2018-05-31T19:53:44.424Z,19.10
2018-05-31T19:57:52.901Z,18.10
2018-05-31T20:02:01.358Z,17.70
2018-05-31T20:06:04.265Z,15.80
2018-05-31T20:10:07.234Z,17.63
2018-05-31T20:14:10.589Z,17.10
2018-05-31T20:18:13.355Z,19.27
2018-05-31T20:22:16.162Z,17.93
2018-05-31T20:26:19.149Z,19.20
2018-05-31T20:30:21.954Z,17.80
2018-05-31T20:34:24.754Z,18.20
2018-05-31T20:38:27.534Z,20.70
2018-05-31T20:42:30.367Z,17.83
2018-05-31T20:46:33.150Z,20.37
2018-05-31T20:50:35.905Z,20.00
2018-05-31T20:54:38.691Z,20.40
2018-05-31T20:58:42.226Z,19.47
2018-05-31T21:02:44.979Z,19.07
2018-05-31T21:06:48.839Z,21.80
2018-05-31T21:10:51.597Z,20.07
2018-05-31T21:14:54.447Z,18.77
2018-05-31T21:18:57.280Z,18.70
2018-05-31T21:23:00.070Z,19.97
2018-05-31T21:27:03.455Z,19.17
2018-05-31T21:31:06.233Z,19.33
2018-05-31T21:35:09.898Z,19.70
2018-05-31T21:39:12.666Z,18.80
2018-05-31T21:43:15.411Z,20.70
2018-05-31T21:47:18.222Z,19.43
2018-05-31T21:51:21.741Z,19.47
2018-05-31T21:55:24.527Z,18.50
2018-05-31T21:59:27.325Z,19.47
2018-05-31T22:03:30.077Z,20.30
2018-05-31T22:07:32.865Z,20.60
2018-05-31T22:11:35.630Z,21.13
2018-05-31T22:15:39.203Z,20.83
2018-05-31T22:19:42.064Z,21.23
2018-05-31T22:23:45.610Z,21.20
2018-05-31T22:27:48.352Z,22.93
2018-05-31T22:31:51.297Z,22.63
2018-05-31T22:35:54.097Z,21.07
2018-05-31T22:39:57.019Z,22.17
2018-05-31T22:43:59.794Z,21.63
2018-05-31T22:48:02.771Z,20.47
2018-05-31T22:52:06.278Z,21.00
2018-05-31T22:56:09.447Z,21.57
2018-05-31T23:00:12.359Z,20.80
2018-05-31T23:04:15.282Z,22.60
2018-05-31T23:08:18.878Z,22.57
2018-05-31T23:12:21.614Z,21.70
2018-05-31T23:16:24.398Z,21.80
2018-05-31T23:20:27.930Z,21.47
2018-05-31T23:24:31.421Z,23.07
2018-05-31T23:28:34.162Z,23.27
2018-05-31T23:32:36.984Z,21.90
2018-05-31T23:36:39.727Z,24.33
2018-05-31T23:40:43.310Z,22.67
2018-05-31T23:44:46.073Z,20.37
2018-05-31T23:48:48.789Z,20.20
2018-05-31T23:52:51.551Z,19.17
2018-05-31T23:56:54.350Z,20.83
